createdAt,value
2023-05-19T00:03:34.198Z,3.83
2023-05-19T00:08:38.908Z,4.20
2023-05-19T00:13:42.294Z,3.40
2023-05-19T00:18:44.091Z,4.10
2023-05-19T00:23:45.980Z,3.80
2023-05-19T00:28:49.080Z,3.72
2023-05-19T00:33:50.814Z,3.03
2023-05-19T00:38:52.530Z,3.53
2023-05-19T00:43:55.710Z,4.45
2023-05-19T00:48:57.389Z,3.65
2023-05-19T00:53:59.348Z,3.25
2023-05-19T00:59:03.002Z,3.28
2023-05-19T01:04:04.852Z,2.90
2023-05-19T01:09:06.637Z,3.25
2023-05-19T01:14:09.761Z,4.47
2023-05-19T01:19:31.585Z,4.13
2023-05-19T01:25:09.087Z,4.50
2023-05-19T01:30:25.759Z,4.40
2023-05-19T01:35:29.088Z,2.97
2023-05-19T01:40:32.489Z,5.00
2023-05-19T01:45:36.817Z,5.50
2023-05-19T01:50:39.611Z,4.25
2023-05-19T01:55:43.950Z,5.05
2023-05-19T02:00:54.112Z,4.97
2023-05-19T02:06:03.273Z,3.63
2023-05-19T02:11:11.876Z,4.28
2023-05-19T02:16:18.649Z,4.75
2023-05-19T02:21:21.495Z,4.20
2023-05-19T02:26:23.423Z,5.25
2023-05-19T02:31:26.452Z,4.15
2023-05-19T02:36:28.346Z,4.28
2023-05-19T02:41:31.042Z,4.53
2023-05-19T02:46:34.154Z,3.47
2023-05-19T02:51:36.120Z,3.60
2023-05-19T02:56:38.013Z,4.63
2023-05-19T03:01:41.256Z,4.95
2023-05-19T03:06:42.990Z,3.83
2023-05-19T03:11:44.560Z,4.63
2023-05-19T03:16:47.540Z,6.63
2023-05-19T03:21:49.137Z,5.40
2023-05-19T03:26:51.224Z,5.80
2023-05-19T03:31:54.478Z,6.10
2023-05-19T03:36:56.096Z,5.65
2023-05-19T03:41:57.794Z,5.45
2023-05-19T03:47:00.879Z,4.45
2023-05-19T03:52:02.416Z,4.90
2023-05-19T03:57:04.420Z,4.88
2023-05-19T04:02:08.445Z,5.63
2023-05-19T04:07:10.900Z,5.95
2023-05-19T04:12:12.454Z,5.95
2023-05-19T04:17:15.647Z,4.80
2023-05-19T04:22:17.322Z,4.20
2023-05-19T04:27:19.093Z,5.85
2023-05-19T04:32:22.069Z,4.18
2023-05-19T04:37:23.619Z,4.82
2023-05-19T04:42:25.234Z,3.92
2023-05-19T04:47:28.548Z,4.75
2023-05-19T04:52:30.117Z,5.20
2023-05-19T04:57:31.665Z,5.85
2023-05-19T05:02:34.701Z,5.15
2023-05-19T05:07:36.305Z,3.95
2023-05-19T05:12:38.647Z,4.15
2023-05-19T05:17:42.261Z,3.78
2023-05-19T05:22:44.374Z,4.55
2023-05-19T05:27:46.070Z,3.70
2023-05-19T05:32:49.548Z,3.80
2023-05-19T05:37:51.193Z,4.45
2023-05-19T05:42:52.768Z,2.65
2023-05-19T05:47:56.516Z,4.55
2023-05-19T05:53:01.724Z,3.63
2023-05-19T05:58:03.296Z,3.80
2023-05-19T06:03:06.702Z,4.45
2023-05-19T06:08:08.400Z,4.22
2023-05-19T06:13:10.148Z,4.72
2023-05-19T06:18:13.057Z,5.20
2023-05-19T06:23:14.677Z,4.25
2023-05-19T06:28:16.567Z,5.28
2023-05-19T06:33:19.469Z,5.18
2023-05-19T06:38:21.113Z,5.10
2023-05-19T06:43:22.703Z,4.00
2023-05-19T06:48:25.748Z,5.18
2023-05-19T06:53:27.365Z,5.80
2023-05-19T06:58:29.039Z,4.85
2023-05-19T07:03:32.243Z,6.22
2023-05-19T07:08:33.937Z,5.20
2023-05-19T07:13:35.483Z,4.20
2023-05-19T07:18:38.513Z,5.53
2023-05-19T07:23:40.068Z,7.22
2023-05-19T07:28:41.800Z,4.03
2023-05-19T07:33:44.817Z,5.57
2023-05-19T07:38:46.974Z,4.85
2023-05-19T07:43:48.679Z,5.50
2023-05-19T07:48:51.699Z,4.82
2023-05-19T07:53:53.423Z,4.13
2023-05-19T07:58:55.067Z,4.60
2023-05-19T08:03:58.176Z,4.15
2023-05-19T08:08:59.847Z,4.95
2023-05-19T08:14:01.400Z,4.78
2023-05-19T08:19:04.473Z,4.60
2023-05-19T08:24:06.577Z,5.07
2023-05-19T08:29:08.190Z,4.82
2023-05-19T08:34:11.077Z,5.50
2023-05-19T08:39:13.277Z,5.82
2023-05-19T08:44:16.594Z,5.18
2023-05-19T08:49:26.674Z,5.40
2023-05-19T08:54:32.970Z,4.75
2023-05-19T08:59:35.036Z,5.15
2023-05-19T09:04:38.904Z,5.25
2023-05-19T09:09:40.694Z,3.78
2023-05-19T09:14:42.405Z,5.60
2023-05-19T09:19:45.756Z,5.65
2023-05-19T09:24:47.711Z,5.75
2023-05-19T09:29:49.555Z,5.15
2023-05-19T09:34:53.415Z,4.50
2023-05-19T09:39:55.079Z,5.78
2023-05-19T09:45:00.365Z,4.75
2023-05-19T09:50:05.175Z,4.78
2023-05-19T09:55:11.408Z,4.32
2023-05-19T10:00:13.722Z,4.00
2023-05-19T10:05:18.073Z,3.38
2023-05-19T10:10:20.313Z,5.00
2023-05-19T10:15:23.374Z,4.70
2023-05-19T10:20:26.857Z,4.50
2023-05-19T10:25:31.230Z,4.30
2023-05-19T10:30:36.777Z,4.32
2023-05-19T10:36:02.200Z,4.72
2023-05-19T10:41:10.582Z,3.72
2023-05-19T10:46:12.503Z,4.38
2023-05-19T10:51:16.101Z,5.05
2023-05-19T10:56:30.740Z,4.53
2023-05-19T11:01:34.042Z,3.75
2023-05-19T11:06:38.609Z,5.40
2023-05-19T11:11:45.905Z,3.65
2023-05-19T11:16:49.001Z,3.33
2023-05-19T11:21:52.786Z,3.40
2023-05-19T11:26:54.749Z,2.70
2023-05-19T11:31:56.496Z,3.65
2023-05-19T11:36:59.685Z,3.83
2023-05-19T11:42:01.552Z,4.35
2023-05-19T11:47:03.715Z,6.10
2023-05-19T11:52:06.978Z,5.40
2023-05-19T11:57:09.237Z,6.13
2023-05-19T12:02:17.533Z,4.70
2023-05-19T12:07:23.320Z,3.60
2023-05-19T12:12:25.061Z,5.95
2023-05-19T12:17:26.721Z,6.88
2023-05-19T12:22:29.730Z,5.45
2023-05-19T12:27:36.198Z,5.93
2023-05-19T12:32:38.204Z,6.13
2023-05-19T12:37:42.332Z,6.95
2023-05-19T12:42:44.920Z,6.88
2023-05-19T12:47:48.896Z,4.90
2023-05-19T12:52:52.029Z,6.57
2023-05-19T12:57:54.458Z,5.30
2023-05-19T13:02:58.522Z,7.85
2023-05-19T13:08:04.883Z,5.57
2023-05-19T13:13:07.805Z,4.97
2023-05-19T13:18:11.325Z,5.95
2023-05-19T13:23:14.701Z,6.95
2023-05-19T13:28:16.349Z,5.32
2023-05-19T13:33:18.085Z,4.70
2023-05-19T13:38:21.035Z,6.07
2023-05-19T13:43:22.596Z,5.97
2023-05-19T13:48:24.252Z,5.18
2023-05-19T13:53:27.326Z,5.07
2023-05-19T13:58:29.040Z,5.32
2023-05-19T14:03:30.837Z,5.05
2023-05-19T14:08:33.946Z,5.40
2023-05-19T14:13:38.358Z,5.18
2023-05-19T14:18:43.775Z,6.50
2023-05-19T14:23:46.700Z,5.95
2023-05-19T14:28:48.261Z,5.63
2023-05-19T14:33:49.901Z,6.50
2023-05-19T14:38:52.968Z,5.75
2023-05-19T14:43:54.631Z,7.85
2023-05-19T14:48:56.347Z,5.68
2023-05-19T14:53:59.318Z,6.32
2023-05-19T14:59:00.976Z,5.78
2023-05-19T15:04:02.678Z,5.53
2023-05-19T15:09:05.699Z,6.00
2023-05-19T15:14:07.270Z,5.95
2023-05-19T15:19:08.843Z,8.07
2023-05-19T15:24:11.931Z,6.05
2023-05-19T15:29:13.489Z,6.38
2023-05-19T15:34:15.067Z,6.43
2023-05-19T15:39:18.238Z,4.85
2023-05-19T15:44:19.826Z,5.03
2023-05-19T15:49:22.469Z,6.00
2023-05-19T15:54:25.460Z,4.18
2023-05-19T15:59:27.098Z,5.30
2023-05-19T16:04:28.768Z,5.38
2023-05-19T16:09:32.188Z,4.80
2023-05-19T16:14:33.850Z,3.85
2023-05-19T16:19:35.436Z,4.68
2023-05-19T16:24:38.477Z,3.30
2023-05-19T16:29:40.136Z,5.70
2023-05-19T16:34:41.799Z,4.50
2023-05-19T16:39:44.698Z,5.70
2023-05-19T16:44:46.349Z,4.78
2023-05-19T16:49:47.906Z,5.60
2023-05-19T16:54:50.839Z,4.80
2023-05-19T16:59:52.538Z,4.80
2023-05-19T17:04:54.146Z,4.95
2023-05-19T17:09:57.078Z,5.55
2023-05-19T17:14:58.737Z,4.38
2023-05-19T17:20:00.312Z,4.90
2023-05-19T17:25:03.733Z,4.38
2023-05-19T17:30:06.634Z,4.88
2023-05-19T17:35:08.729Z,4.20
2023-05-19T17:40:12.774Z,4.88
2023-05-19T17:45:14.358Z,4.80
2023-05-19T17:50:16.149Z,4.75
2023-05-19T17:55:20.473Z,5.07
2023-05-19T18:00:23.078Z,5.05
2023-05-19T18:05:25.507Z,5.05
2023-05-19T18:10:29.781Z,4.68
2023-05-19T18:15:31.337Z,5.32
2023-05-19T18:20:33.585Z,4.40
2023-05-19T18:25:36.838Z,4.90
2023-05-19T18:30:38.497Z,4.82
2023-05-19T18:35:40.078Z,4.60
2023-05-19T18:40:44.549Z,4.18
2023-05-19T18:45:46.772Z,5.13
2023-05-19T18:50:48.434Z,4.85
2023-05-19T18:55:51.478Z,4.38
2023-05-19T19:00:54.749Z,4.85
2023-05-19T19:05:57.541Z,5.60
2023-05-19T19:11:00.484Z,6.10
2023-05-19T19:16:02.088Z,5.13
2023-05-19T19:21:04.189Z,5.55
2023-05-19T19:26:07.260Z,5.40
2023-05-19T19:31:08.899Z,5.75
2023-05-19T19:36:10.494Z,4.30
2023-05-19T19:41:13.486Z,3.95
2023-05-19T19:46:15.200Z,3.97
2023-05-19T19:51:17.121Z,4.25
2023-05-19T19:56:20.169Z,2.75
2023-05-19T20:01:21.801Z,4.50
2023-05-19T20:06:23.488Z,4.38
2023-05-19T20:11:26.531Z,5.25
2023-05-19T20:21:43.626Z,4.78
2023-05-19T20:26:46.559Z,4.78
2023-05-19T20:31:48.123Z,5.10
2023-05-19T20:36:49.740Z,4.32
2023-05-19T20:41:52.683Z,2.70
2023-05-19T20:46:54.323Z,4.32
2023-05-19T20:51:56.750Z,4.38
2023-05-19T20:56:59.715Z,3.80
2023-05-19T21:02:01.375Z,3.55
2023-05-19T21:07:03.024Z,3.65
2023-05-19T21:12:06.349Z,2.70
2023-05-19T21:17:08.295Z,3.78
2023-05-19T21:22:10.121Z,4.32
2023-05-19T21:27:13.209Z,2.92
2023-05-19T21:32:14.892Z,1.98
2023-05-19T21:37:16.532Z,2.72
2023-05-19T21:42:19.547Z,2.97
2023-05-19T21:47:21.244Z,2.75
2023-05-19T21:52:22.820Z,2.97
2023-05-19T21:57:25.780Z,3.45
2023-05-19T22:02:27.486Z,2.85
2023-05-19T22:07:29.065Z,3.35
2023-05-19T22:12:32.128Z,2.45
2023-05-19T22:17:33.811Z,3.08
2023-05-19T22:22:35.594Z,2.83
2023-05-19T22:27:38.586Z,2.60
2023-05-19T22:32:40.234Z,2.55
2023-05-19T22:37:41.984Z,3.22
2023-05-19T22:42:44.900Z,2.83
2023-05-19T22:47:46.730Z,3.05
2023-05-19T22:52:48.313Z,2.65
2023-05-19T22:57:51.312Z,2.42
2023-05-19T23:02:52.927Z,3.00
2023-05-19T23:07:54.636Z,2.97
2023-05-19T23:12:57.632Z,2.78
2023-05-19T23:17:59.252Z,3.00
2023-05-19T23:23:00.994Z,3.72
2023-05-19T23:28:04.337Z,2.30
2023-05-19T23:33:05.987Z,2.10
2023-05-19T23:38:07.784Z,3.20
2023-05-19T23:43:10.743Z,2.20
2023-05-19T23:48:12.501Z,3.13
2023-05-19T23:53:14.224Z,3.22
2023-05-19T23:58:17.241Z,2.53
